Time;durP1;ratioP1;P1;durP2;ratioP2;P2;SDS_P1;SDS_P2;PMS_P1;PMS_P2;Temp;Humidity;BMP_temperature;BMP_pressure;BME280_temperature;BME280_humidity;BME280_pressure;Samples;Min_cycle;Max_cycle;Signal;HPM_P1;HPM_P2
2023/10/22 00:00:36;;;;;;;3.80;1.08;;;;;;;;;;5028517;28;20428;-66
2023/10/22 00:03:02;;;;;;;4.80;1.00;;;;;;;;;;5027519;28;20021;-64
2023/10/22 00:05:27;;;;;;;3.45;1.00;;;;;;;;;;5012359;28;20028;-67
2023/10/22 00:07:52;;;;;;;3.35;1.00;;;;;;;;;;5033315;28;20017;-65
2023/10/22 00:10:17;;;;;;;3.42;1.00;;;;;;;;;;5021877;28;20052;-67
2023/10/22 00:12:43;;;;;;;4.05;1.23;;;;;;;;;;5023108;28;20108;-66
2023/10/22 00:15:08;;;;;;;3.17;1.10;;;;;;;;;;5026903;28;20491;-65
2023/10/22 00:17:34;;;;;;;1.20;0.77;;;;;;;;;;5039247;28;20025;-67
2023/10/22 00:19:59;;;;;;;2.40;0.95;;;;;;;;;;5032251;28;20009;-67
2023/10/22 00:22:24;;;;;;;2.10;0.63;;;;;;;;;;5037188;28;20017;-67
2023/10/22 00:24:49;;;;;;;3.00;0.95;;;;;;;;;;5029269;28;20056;-66
2023/10/22 00:27:14;;;;;;;1.67;0.70;;;;;;;;;;5027814;28;20021;-67
2023/10/22 00:29:40;;;;;;;3.08;0.80;;;;;;;;;;5026771;28;20435;-66
2023/10/22 00:32:06;;;;;;;3.38;1.15;;;;;;;;;;5027719;28;20491;-66
2023/10/22 00:34:31;;;;;;;1.60;0.75;;;;;;;;;;5036561;28;20017;-64
2023/10/22 00:36:56;;;;;;;3.47;0.90;;;;;;;;;;5026271;28;20029;-66
2023/10/22 00:39:21;;;;;;;5.50;1.02;;;;;;;;;;5038636;28;20047;-67
2023/10/22 00:41:47;;;;;;;4.65;1.15;;;;;;;;;;5027685;28;20048;-66
2023/10/22 00:44:12;;;;;;;3.75;0.98;;;;;;;;;;5009472;28;20100;-65
2023/10/22 00:46:37;;;;;;;3.28;1.30;;;;;;;;;;5022268;28;20022;-65
2023/10/22 00:49:02;;;;;;;5.38;1.45;;;;;;;;;;5032917;28;20017;-67
2023/10/22 00:51:28;;;;;;;2.00;0.93;;;;;;;;;;5028877;28;20083;-65
2023/10/22 00:53:53;;;;;;;2.47;1.10;;;;;;;;;;5019883;28;20033;-67
2023/10/22 00:56:20;;;;;;;2.83;1.45;;;;;;;;;;5026328;28;20009;-67
2023/10/22 00:58:45;;;;;;;2.28;0.90;;;;;;;;;;5026441;28;20126;-67
2023/10/22 01:01:11;;;;;;;1.60;0.70;;;;;;;;;;5026633;28;20092;-65
2023/10/22 01:03:36;;;;;;;2.80;0.95;;;;;;;;;;5026874;28;20044;-67
2023/10/22 01:06:02;;;;;;;3.75;1.20;;;;;;;;;;5037441;28;20103;-68
2023/10/22 01:08:27;;;;;;;1.58;0.90;;;;;;;;;;5026380;28;20101;-67
2023/10/22 01:11:02;;;;;;;2.53;1.20;;;;;;;;;;5030249;28;20009;-67
2023/10/22 01:13:29;;;;;;;3.85;1.50;;;;;;;;;;5035004;28;20108;-65
2023/10/22 01:15:54;;;;;;;2.33;1.25;;;;;;;;;;5028440;28;20025;-68
2023/10/22 01:18:20;;;;;;;2.30;1.10;;;;;;;;;;5027299;28;20014;-68
2023/10/22 01:20:46;;;;;;;7.95;1.40;;;;;;;;;;5026532;28;20449;-69
2023/10/22 01:23:11;;;;;;;3.92;1.17;;;;;;;;;;5026984;28;20013;-68
2023/10/22 01:25:36;;;;;;;2.47;1.20;;;;;;;;;;5025203;28;20012;-66
2023/10/22 01:28:02;;;;;;;4.57;1.10;;;;;;;;;;5026227;28;20100;-67
2023/10/22 01:30:27;;;;;;;4.68;1.25;;;;;;;;;;5025001;28;20033;-66
2023/10/22 01:32:52;;;;;;;4.18;1.20;;;;;;;;;;5026847;28;20053;-67
2023/10/22 01:35:17;;;;;;;4.57;1.25;;;;;;;;;;5028203;28;20040;-65
2023/10/22 01:37:43;;;;;;;4.05;1.23;;;;;;;;;;5028733;28;20115;-67
2023/10/22 01:40:08;;;;;;;2.50;1.20;;;;;;;;;;5030210;28;20019;-66
2023/10/22 01:42:34;;;;;;;5.57;1.30;;;;;;;;;;5026009;28;20131;-68
2023/10/22 01:44:59;;;;;;;5.32;1.23;;;;;;;;;;5036172;28;20020;-65
2023/10/22 01:47:24;;;;;;;8.80;2.20;;;;;;;;;;5009908;28;20024;-68
2023/10/22 01:49:49;;;;;;;3.88;1.13;;;;;;;;;;5030801;28;20021;-65
2023/10/22 01:52:14;;;;;;;4.78;1.38;;;;;;;;;;5025060;28;20044;-68
2023/10/22 01:54:40;;;;;;;2.60;1.02;;;;;;;;;;5021868;28;20037;-67
2023/10/22 01:57:06;;;;;;;3.08;1.17;;;;;;;;;;5023167;28;20060;-65
2023/10/22 01:59:31;;;;;;;4.38;1.00;;;;;;;;;;5023315;28;20062;-67
2023/10/22 02:01:56;;;;;;;5.47;1.45;;;;;;;;;;5029475;28;20052;-66
2023/10/22 02:04:22;;;;;;;4.53;1.30;;;;;;;;;;5019106;28;20033;-69
2023/10/22 02:06:47;;;;;;;8.23;1.60;;;;;;;;;;5032545;28;20026;-66
2023/10/22 02:09:14;;;;;;;8.27;1.58;;;;;;;;;;5020602;28;20509;-67
2023/10/22 02:11:40;;;;;;;5.18;1.23;;;;;;;;;;5032205;28;20072;-67
2023/10/22 02:14:05;;;;;;;2.45;1.15;;;;;;;;;;5019284;28;20389;-67
2023/10/22 02:16:30;;;;;;;1.77;0.93;;;;;;;;;;5004641;28;20539;-67
2023/10/22 02:18:55;;;;;;;3.38;1.20;;;;;;;;;;5022232;28;20448;-66
2023/10/22 02:21:25;;;;;;;13.00;1.35;;;;;;;;;;5027270;28;20013;-67
2023/10/22 02:23:52;;;;;;;3.33;1.13;;;;;;;;;;5032481;28;20014;-67
2023/10/22 02:26:17;;;;;;;3.17;1.35;;;;;;;;;;5029054;28;20383;-67
2023/10/22 02:28:43;;;;;;;6.10;1.27;;;;;;;;;;5025638;28;20506;-66
2023/10/22 02:31:10;;;;;;;3.90;1.13;;;;;;;;;;5025334;28;20095;-64
2023/10/22 02:33:35;;;;;;;6.72;1.27;;;;;;;;;;5026586;28;20057;-65
2023/10/22 02:36:00;;;;;;;3.58;1.00;;;;;;;;;;5033508;28;20045;-67
2023/10/22 02:38:26;;;;;;;2.22;0.93;;;;;;;;;;5031966;28;20036;-64
2023/10/22 02:40:51;;;;;;;2.03;0.98;;;;;;;;;;5029311;28;20032;-67
2023/10/22 02:43:17;;;;;;;0.73;0.70;;;;;;;;;;5029831;28;20009;-67
2023/10/22 02:45:48;;;;;;;3.05;1.02;;;;;;;;;;5029903;28;20132;-67
2023/10/22 02:48:14;;;;;;;5.57;1.20;;;;;;;;;;5029721;28;20009;-67
2023/10/22 02:50:39;;;;;;;4.50;0.93;;;;;;;;;;5030332;28;20048;-65
2023/10/22 02:53:04;;;;;;;1.40;0.77;;;;;;;;;;5029340;28;20097;-67
2023/10/22 02:55:29;;;;;;;1.63;0.85;;;;;;;;;;5037372;28;20445;-67
2023/10/22 02:57:54;;;;;;;1.77;0.95;;;;;;;;;;5034095;28;20036;-66
2023/10/22 03:00:20;;;;;;;2.05;1.10;;;;;;;;;;5040876;28;20067;-67
2023/10/22 03:02:45;;;;;;;8.10;0.98;;;;;;;;;;5030031;28;20026;-66
2023/10/22 03:05:10;;;;;;;1.67;0.90;;;;;;;;;;5023266;28;20025;-67
2023/10/22 03:07:36;;;;;;;1.38;0.88;;;;;;;;;;5036812;28;20025;-65
2023/10/22 03:10:01;;;;;;;1.70;0.90;;;;;;;;;;5029579;28;20021;-67
2023/10/22 03:12:26;;;;;;;4.15;1.45;;;;;;;;;;5028316;28;20022;-67
2023/10/22 03:14:52;;;;;;;2.83;0.95;;;;;;;;;;5036210;28;20465;-67
2023/10/22 03:17:17;;;;;;;2.22;1.05;;;;;;;;;;5028889;28;20075;-65
2023/10/22 03:19:43;;;;;;;6.53;1.20;;;;;;;;;;5030928;28;21089;-65
2023/10/22 03:22:08;;;;;;;1.42;0.88;;;;;;;;;;5031313;28;20372;-67
2023/10/22 03:24:33;;;;;;;3.38;0.95;;;;;;;;;;5029686;28;20465;-65
2023/10/22 03:26:59;;;;;;;2.65;1.20;;;;;;;;;;5040153;28;20009;-67
2023/10/22 03:29:25;;;;;;;6.80;1.30;;;;;;;;;;5028076;28;20429;-65
2023/10/22 03:31:50;;;;;;;1.75;0.93;;;;;;;;;;5027975;28;20566;-68
2023/10/22 03:34:15;;;;;;;4.82;1.33;;;;;;;;;;5028850;28;20030;-68
2023/10/22 03:36:41;;;;;;;2.85;1.23;;;;;;;;;;5026603;28;20021;-68
2023/10/22 03:39:06;;;;;;;4.00;1.10;;;;;;;;;;5028599;28;20022;-68
2023/10/22 03:41:32;;;;;;;5.85;1.70;;;;;;;;;;5027861;28;20060;-66
2023/10/22 03:43:57;;;;;;;3.90;1.45;;;;;;;;;;5012829;28;20032;-66
2023/10/22 03:46:23;;;;;;;2.45;1.20;;;;;;;;;;5026048;28;20457;-66
2023/10/22 03:48:48;;;;;;;4.30;1.10;;;;;;;;;;5027324;28;20612;-68
2023/10/22 03:51:13;;;;;;;8.38;1.70;;;;;;;;;;5031274;28;20571;-65
2023/10/22 03:53:38;;;;;;;3.60;1.25;;;;;;;;;;5028591;28;20071;-69
2023/10/22 03:56:03;;;;;;;4.43;1.13;;;;;;;;;;5027685;28;20492;-66
2023/10/22 03:58:29;;;;;;;2.97;1.30;;;;;;;;;;5035177;28;20395;-67
2023/10/22 04:00:54;;;;;;;6.75;1.40;;;;;;;;;;5029504;28;20036;-66
2023/10/22 04:03:20;;;;;;;5.97;1.40;;;;;;;;;;5031342;28;20606;-67
2023/10/22 04:05:45;;;;;;;3.38;1.38;;;;;;;;;;5040808;28;20564;-68
2023/10/22 04:08:10;;;;;;;4.00;1.30;;;;;;;;;;5038777;28;20122;-67
2023/10/22 04:10:36;;;;;;;5.57;1.25;;;;;;;;;;5010002;28;20095;-66
2023/10/22 04:13:02;;;;;;;5.90;1.33;;;;;;;;;;5028014;28;20037;-65
2023/10/22 04:15:27;;;;;;;5.10;1.20;;;;;;;;;;5030887;28;20013;-67
2023/10/22 04:17:53;;;;;;;5.75;1.20;;;;;;;;;;5027797;28;20039;-67
2023/10/22 04:20:18;;;;;;;3.97;1.27;;;;;;;;;;5033244;28;20013;-68
2023/10/22 04:22:44;;;;;;;3.30;0.95;;;;;;;;;;5037186;28;20033;-68
2023/10/22 04:25:09;;;;;;;1.98;1.00;;;;;;;;;;5024889;28;20033;-68
2023/10/22 04:27:34;;;;;;;2.50;1.00;;;;;;;;;;5028389;28;20572;-67
2023/10/22 04:30:00;;;;;;;3.53;1.20;;;;;;;;;;5032057;28;20117;-67
2023/10/22 04:32:25;;;;;;;4.65;1.05;;;;;;;;;;5025937;28;20030;-67
2023/10/22 04:34:50;;;;;;;3.00;1.23;;;;;;;;;;5031619;28;20101;-64
2023/10/22 04:37:17;;;;;;;5.68;1.23;;;;;;;;;;5027841;28;20091;-67
2023/10/22 04:39:43;;;;;;;4.53;1.45;;;;;;;;;;5023236;28;20373;-68
2023/10/22 04:42:08;;;;;;;2.45;1.08;;;;;;;;;;5030702;28;20009;-68
2023/10/22 04:44:33;;;;;;;3.53;1.50;;;;;;;;;;5026254;28;20016;-66
2023/10/22 04:46:58;;;;;;;4.75;2.03;;;;;;;;;;5029258;28;20082;-67
2023/10/22 04:49:26;;;;;;;7.47;3.13;;;;;;;;;;5031053;28;20469;-66
2023/10/22 04:51:51;;;;;;;5.03;1.98;;;;;;;;;;5027104;28;20025;-67
2023/10/22 04:54:16;;;;;;;4.47;1.75;;;;;;;;;;5005820;28;20029;-67
2023/10/22 04:56:41;;;;;;;5.65;1.77;;;;;;;;;;5034565;28;20029;-67
2023/10/22 04:59:06;;;;;;;4.45;1.83;;;;;;;;;;5024585;28;20049;-67
2023/10/22 05:01:32;;;;;;;6.53;1.35;;;;;;;;;;5024637;28;20421;-67
2023/10/22 05:03:57;;;;;;;5.80;1.20;;;;;;;;;;5022505;28;20735;-67
2023/10/22 05:06:22;;;;;;;2.38;1.10;;;;;;;;;;5024451;28;20071;-66
2023/10/22 05:08:47;;;;;;;3.88;1.33;;;;;;;;;;5036504;28;20108;-66
2023/10/22 05:11:13;;;;;;;2.95;1.40;;;;;;;;;;5024426;28;20043;-68
2023/10/22 05:13:38;;;;;;;2.65;1.30;;;;;;;;;;5022521;28;20479;-66
2023/10/22 05:16:04;;;;;;;3.90;1.20;;;;;;;;;;5027832;28;20360;-67
2023/10/22 05:18:29;;;;;;;6.28;1.20;;;;;;;;;;5039307;28;20021;-67
2023/10/22 05:21:00;;;;;;;7.43;1.65;;;;;;;;;;5030400;28;20188;-66
2023/10/22 05:23:26;;;;;;;3.95;1.25;;;;;;;;;;5031349;28;20337;-67
2023/10/22 05:26:01;;;;;;;3.60;1.40;;;;;;;;;;5022994;28;20074;-66
2023/10/22 05:28:26;;;;;;;1.60;1.00;;;;;;;;;;5022906;28;20018;-66
2023/10/22 05:30:52;;;;;;;3.00;1.33;;;;;;;;;;5024106;28;20025;-67
2023/10/22 05:33:17;;;;;;;7.40;1.48;;;;;;;;;;5024156;28;20033;-67
2023/10/22 05:35:42;;;;;;;3.72;1.02;;;;;;;;;;5024226;28;20184;-68
2023/10/22 05:38:07;;;;;;;2.42;1.05;;;;;;;;;;5026736;28;20117;-67
2023/10/22 05:40:37;;;;;;;6.20;1.38;;;;;;;;;;5021053;28;20052;-67
2023/10/22 05:43:03;;;;;;;4.10;1.60;;;;;;;;;;5023035;28;20013;-66
2023/10/22 05:45:28;;;;;;;6.82;1.30;;;;;;;;;;5010226;28;20770;-67
2023/10/22 05:47:53;;;;;;;2.78;1.13;;;;;;;;;;5030710;28;20022;-65
2023/10/22 05:50:18;;;;;;;3.92;1.00;;;;;;;;;;5028614;28;20338;-67
2023/10/22 05:52:43;;;;;;;3.97;1.50;;;;;;;;;;5030446;28;20166;-67
2023/10/22 05:55:09;;;;;;;3.35;1.20;;;;;;;;;;5021816;28;20349;-65
2023/10/22 05:57:34;;;;;;;3.80;1.45;;;;;;;;;;5028982;28;20487;-67
2023/10/22 05:59:59;;;;;;;4.72;1.70;;;;;;;;;;5028726;28;20032;-65
2023/10/22 06:02:24;;;;;;;5.55;1.40;;;;;;;;;;5028635;28;20037;-67
2023/10/22 06:04:49;;;;;;;4.18;1.50;;;;;;;;;;5030509;28;20014;-65
2023/10/22 06:07:15;;;;;;;6.15;1.38;;;;;;;;;;5026349;28;20446;-68
2023/10/22 06:09:40;;;;;;;2.65;1.40;;;;;;;;;;5029454;28;20472;-66
2023/10/22 06:12:05;;;;;;;5.65;1.65;;;;;;;;;;5026408;28;20393;-67
2023/10/22 06:14:30;;;;;;;6.15;1.40;;;;;;;;;;5029171;28;20025;-67
2023/10/22 06:16:56;;;;;;;5.10;1.60;;;;;;;;;;5033281;28;20045;-66
2023/10/22 06:19:21;;;;;;;5.07;1.50;;;;;;;;;;5031629;28;20021;-66
2023/10/22 06:21:46;;;;;;;4.70;1.63;;;;;;;;;;5031399;28;20036;-67
2023/10/22 06:24:12;;;;;;;6.20;1.80;;;;;;;;;;5030887;28;20493;-66
2023/10/22 06:26:37;;;;;;;4.38;1.75;;;;;;;;;;5030745;28;20503;-66
2023/10/22 06:29:02;;;;;;;5.18;2.08;;;;;;;;;;5031323;28;20014;-66
2023/10/22 06:31:27;;;;;;;8.00;1.70;;;;;;;;;;5033186;28;20070;-64
2023/10/22 06:33:53;;;;;;;3.97;1.80;;;;;;;;;;5030675;28;20021;-66
2023/10/22 06:36:20;;;;;;;8.07;2.13;;;;;;;;;;5028458;28;20018;-64
2023/10/22 06:38:46;;;;;;;4.97;1.67;;;;;;;;;;5032496;28;20029;-66
2023/10/22 06:41:12;;;;;;;4.15;1.70;;;;;;;;;;5035705;28;20044;-66
2023/10/22 06:43:37;;;;;;;5.20;1.67;;;;;;;;;;5031082;28;20469;-65
2023/10/22 06:46:03;;;;;;;4.70;1.95;;;;;;;;;;5031719;28;20056;-66
2023/10/22 06:48:29;;;;;;;5.30;2.05;;;;;;;;;;5028705;28;20052;-67
2023/10/22 06:50:54;;;;;;;5.93;2.05;;;;;;;;;;5030000;28;20033;-67
2023/10/22 06:53:20;;;;;;;7.55;2.75;;;;;;;;;;5040584;28;20365;-66
2023/10/22 06:55:45;;;;;;;8.88;3.10;;;;;;;;;;5026789;28;20099;-66
2023/10/22 06:58:10;;;;;;;13.00;5.75;;;;;;;;;;5028831;28;20159;-65
2023/10/22 07:00:35;;;;;;;18.15;7.57;;;;;;;;;;5027602;28;20025;-67
2023/10/22 07:03:00;;;;;;;11.73;6.85;;;;;;;;;;5030105;28;20029;-66
2023/10/22 07:05:26;;;;;;;12.63;6.25;;;;;;;;;;5027815;28;20013;-67
2023/10/22 07:07:51;;;;;;;11.00;6.47;;;;;;;;;;5028796;28;20017;-67
2023/10/22 07:10:16;;;;;;;8.00;4.80;;;;;;;;;;5017142;28;20021;-64
2023/10/22 07:12:41;;;;;;;5.38;3.42;;;;;;;;;;5027825;28;20508;-67
2023/10/22 07:15:09;;;;;;;5.15;2.05;;;;;;;;;;5024427;28;20574;-64
2023/10/22 07:17:34;;;;;;;6.03;1.65;;;;;;;;;;5027558;28;20025;-67
2023/10/22 07:19:59;;;;;;;3.72;1.77;;;;;;;;;;5024566;28;20257;-65
2023/10/22 07:22:24;;;;;;;3.95;1.80;;;;;;;;;;5013698;28;20021;-66
2023/10/22 07:24:50;;;;;;;3.72;1.48;;;;;;;;;;5014227;28;20100;-67
2023/10/22 07:27:15;;;;;;;4.63;2.10;;;;;;;;;;5028680;28;20305;-67
2023/10/22 07:29:40;;;;;;;4.88;2.00;;;;;;;;;;5027197;28;20032;-67
2023/10/22 07:32:06;;;;;;;4.75;2.22;;;;;;;;;;5030652;28;20032;-64
2023/10/22 07:34:31;;;;;;;5.53;2.35;;;;;;;;;;5008928;28;20009;-65
2023/10/22 07:36:56;;;;;;;5.32;2.28;;;;;;;;;;5027831;28;20029;-65
2023/10/22 07:39:21;;;;;;;5.15;2.40;;;;;;;;;;5029071;28;20049;-66
2023/10/22 07:41:47;;;;;;;8.55;2.53;;;;;;;;;;5034516;28;20148;-65
2023/10/22 07:44:12;;;;;;;5.57;2.45;;;;;;;;;;5029882;28;20033;-66
2023/10/22 07:46:37;;;;;;;3.67;2.17;;;;;;;;;;5023072;28;20009;-64
2023/10/22 07:49:02;;;;;;;5.03;2.33;;;;;;;;;;5028119;28;20013;-67
2023/10/22 07:51:27;;;;;;;5.43;2.20;;;;;;;;;;5028604;28;20116;-65
2023/10/22 07:53:53;;;;;;;5.53;1.92;;;;;;;;;;5029989;28;20100;-66
2023/10/22 07:56:18;;;;;;;10.23;2.65;;;;;;;;;;5029211;28;20022;-66
2023/10/22 07:58:43;;;;;;;8.07;3.00;;;;;;;;;;5026776;28;20551;-65
2023/10/22 08:01:08;;;;;;;7.18;3.05;;;;;;;;;;5030666;28;20029;-67
2023/10/22 08:03:34;;;;;;;3.75;2.00;;;;;;;;;;5027688;28;20026;-65
2023/10/22 08:06:00;;;;;;;6.53;2.42;;;;;;;;;;5032402;28;20036;-67
2023/10/22 08:08:25;;;;;;;6.03;1.83;;;;;;;;;;5035755;28;20018;-67
2023/10/22 08:10:50;;;;;;;4.25;1.90;;;;;;;;;;5040833;28;20139;-67
2023/10/22 08:13:17;;;;;;;10.65;2.40;;;;;;;;;;5035353;28;20036;-67
2023/10/22 08:15:42;;;;;;;4.85;1.90;;;;;;;;;;5025731;28;20389;-66
2023/10/22 08:18:07;;;;;;;5.15;2.30;;;;;;;;;;5029113;28;20089;-67
2023/10/22 08:20:33;;;;;;;4.22;1.73;;;;;;;;;;5034633;28;20484;-67
2023/10/22 08:22:58;;;;;;;5.43;1.85;;;;;;;;;;5014432;28;20013;-65
2023/10/22 08:25:23;;;;;;;5.07;1.80;;;;;;;;;;5026132;28;20089;-66
2023/10/22 08:27:48;;;;;;;8.60;1.83;;;;;;;;;;5022724;28;20018;-65
2023/10/22 08:30:14;;;;;;;5.47;1.92;;;;;;;;;;5031523;28;20107;-65
2023/10/22 08:32:45;;;;;;;5.97;1.75;;;;;;;;;;5029170;28;20022;-64
2023/10/22 08:35:10;;;;;;;5.00;2.10;;;;;;;;;;5035113;28;20044;-66
2023/10/22 08:37:37;;;;;;;4.53;1.45;;;;;;;;;;5026993;28;20033;-65
2023/10/22 08:40:05;;;;;;;4.30;1.60;;;;;;;;;;5031269;28;20072;-66
2023/10/22 08:42:31;;;;;;;;;;;;;;;;;;5016426;28;20085;-66
2023/10/22 08:44:56;;;;;;;7.22;1.67;;;;;;;;;;5037832;28;19916;-66
2023/10/22 08:47:21;;;;;;;7.30;1.50;;;;;;;;;;5027087;28;20018;-68
2023/10/22 08:49:48;;;;;;;4.53;1.52;;;;;;;;;;5026940;28;20112;-66
2023/10/22 08:52:13;;;;;;;3.47;1.67;;;;;;;;;;5027645;28;20029;-64
2023/10/22 08:54:38;;;;;;;4.30;1.73;;;;;;;;;;5026931;28;20052;-67
2023/10/22 08:57:04;;;;;;;5.07;1.60;;;;;;;;;;5024881;28;20025;-64
2023/10/22 08:59:29;;;;;;;12.65;2.50;;;;;;;;;;5025354;28;20021;-66
2023/10/22 09:01:56;;;;;;;6.00;1.58;;;;;;;;;;5033486;28;20005;-67
2023/10/22 09:04:21;;;;;;;4.55;1.58;;;;;;;;;;5030671;28;20009;-67
2023/10/22 09:06:46;;;;;;;3.83;1.42;;;;;;;;;;5025417;28;20017;-66
2023/10/22 09:09:26;;;;;;;6.38;1.50;;;;;;;;;;5032921;28;20028;-66
2023/10/22 09:11:53;;;;;;;10.30;1.70;;;;;;;;;;5018025;28;20450;-67
2023/10/22 09:14:22;;;;;;;4.63;1.98;;;;;;;;;;5010087;28;20052;-65
2023/10/22 09:16:47;;;;;;;5.50;1.58;;;;;;;;;;5027210;28;20140;-66
2023/10/22 09:19:13;;;;;;;7.07;1.67;;;;;;;;;;5028955;28;20136;-65
2023/10/22 09:21:41;;;;;;;6.50;1.58;;;;;;;;;;5024919;28;20021;-67
2023/10/22 09:24:06;;;;;;;5.38;1.48;;;;;;;;;;5025602;28;20044;-67
2023/10/22 09:26:42;;;;;;;4.25;1.60;;;;;;;;;;5034269;28;20468;-66
2023/10/22 09:29:08;;;;;;;6.85;1.38;;;;;;;;;;5028691;28;20128;-69
2023/10/22 09:31:33;;;;;;;6.43;1.20;;;;;;;;;;5025969;28;20089;-66
2023/10/22 09:33:59;;;;;;;5.22;1.52;;;;;;;;;;5027669;28;20048;-67
2023/10/22 09:36:25;;;;;;;6.45;1.15;;;;;;;;;;5030124;28;20049;-68
2023/10/22 09:38:51;;;;;;;6.18;1.27;;;;;;;;;;5032864;28;20117;-67
2023/10/22 09:41:16;;;;;;;7.18;1.23;;;;;;;;;;5034985;28;20439;-64
2023/10/22 09:43:41;;;;;;;5.63;1.58;;;;;;;;;;5028479;28;20039;-66
2023/10/22 09:46:07;;;;;;;7.68;1.38;;;;;;;;;;5018935;28;20025;-65
2023/10/22 09:48:34;;;;;;;5.43;1.38;;;;;;;;;;5026228;28;20017;-67
2023/10/22 09:51:00;;;;;;;7.38;1.10;;;;;;;;;;5030546;28;20100;-67
2023/10/22 09:53:26;;;;;;;5.40;1.08;;;;;;;;;;5036084;28;20114;-65
2023/10/22 09:55:53;;;;;;;4.65;1.38;;;;;;;;;;5041984;28;20066;-67
2023/10/22 09:58:21;;;;;;;3.40;1.20;;;;;;;;;;5033913;28;20017;-68
2023/10/22 10:00:46;;;;;;;8.07;1.48;;;;;;;;;;5024403;28;20026;-66
2023/10/22 10:03:12;;;;;;;4.13;1.13;;;;;;;;;;5035808;28;20108;-67
2023/10/22 10:05:38;;;;;;;4.50;0.90;;;;;;;;;;5022233;28;20095;-66
2023/10/22 10:08:03;;;;;;;6.40;1.40;;;;;;;;;;5011225;28;20151;-66
2023/10/22 10:10:29;;;;;;;4.97;1.10;;;;;;;;;;5018405;28;20033;-65
2023/10/22 10:12:54;;;;;;;6.63;1.30;;;;;;;;;;5011561;28;20032;-67
2023/10/22 10:15:29;;;;;;;7.57;1.20;;;;;;;;;;5013682;28;20026;-68
2023/10/22 10:17:55;;;;;;;5.45;1.10;;;;;;;;;;5020776;28;20031;-65
2023/10/22 10:20:24;;;;;;;10.57;1.55;;;;;;;;;;5011992;28;20021;-66
2023/10/22 10:23:01;;;;;;;8.18;1.58;;;;;;;;;;5018572;28;20014;-66
2023/10/22 10:25:27;;;;;;;2.60;0.90;;;;;;;;;;5018371;28;20021;-67
2023/10/22 10:27:53;;;;;;;6.18;1.00;;;;;;;;;;5021543;28;20100;-68
2023/10/22 10:30:20;;;;;;;5.68;1.45;;;;;;;;;;5022196;28;20088;-64
2023/10/22 10:32:46;;;;;;;5.90;1.10;;;;;;;;;;5033825;28;20060;-67
2023/10/22 10:35:11;;;;;;;4.10;1.10;;;;;;;;;;5030010;28;20559;-63
2023/10/22 10:37:36;;;;;;;6.70;1.17;;;;;;;;;;5024356;28;20104;-65
2023/10/22 10:40:04;;;;;;;7.25;1.20;;;;;;;;;;5021613;28;20538;-65
2023/10/22 10:42:29;;;;;;;5.18;0.95;;;;;;;;;;5025459;28;20021;-62
2023/10/22 10:44:54;;;;;;;7.60;1.27;;;;;;;;;;5030823;28;20464;-68
2023/10/22 10:47:20;;;;;;;5.93;1.05;;;;;;;;;;5013546;28;20283;-65
2023/10/22 10:49:48;;;;;;;2.77;1.00;;;;;;;;;;5028432;28;20118;-64
2023/10/22 10:52:13;;;;;;;10.82;1.17;;;;;;;;;;5040134;28;20320;-66
2023/10/22 10:54:38;;;;;;;4.55;1.05;;;;;;;;;;5027081;28;20029;-65
2023/10/22 10:57:04;;;;;;;9.98;1.23;;;;;;;;;;5018721;28;20032;-64
2023/10/22 10:59:32;;;;;;;4.07;1.30;;;;;;;;;;5028048;28;20100;-69
2023/10/22 11:02:01;;;;;;;5.78;1.23;;;;;;;;;;5025050;28;20021;-66
2023/10/22 11:04:27;;;;;;;4.53;1.27;;;;;;;;;;5031967;28;20018;-66
2023/10/22 11:06:52;;;;;;;9.82;1.63;;;;;;;;;;5038510;28;20074;-67
2023/10/22 11:09:18;;;;;;;7.03;1.52;;;;;;;;;;5030951;28;20021;-65
2023/10/22 11:12:01;;;;;;;6.70;1.38;;;;;;;;;;5038444;28;20393;-67
2023/10/22 11:14:26;;;;;;;3.20;1.08;;;;;;;;;;5015336;28;20163;-67
2023/10/22 11:16:53;;;;;;;6.50;1.08;;;;;;;;;;5027043;28;20527;-64
2023/10/22 11:19:22;;;;;;;4.05;1.30;;;;;;;;;;5033397;28;20041;-65
2023/10/22 11:21:47;;;;;;;4.28;1.92;;;;;;;;;;5028432;28;20130;-67
2023/10/22 11:24:12;;;;;;;10.75;1.40;;;;;;;;;;5028083;28;20096;-66
2023/10/22 11:26:38;;;;;;;8.23;1.35;;;;;;;;;;5027870;28;20065;-66
2023/10/22 11:29:03;;;;;;;8.98;1.38;;;;;;;;;;5028341;28;20018;-66
2023/10/22 11:31:28;;;;;;;5.97;1.27;;;;;;;;;;5027876;28;20035;-67
2023/10/22 11:33:53;;;;;;;4.57;1.38;;;;;;;;;;5044176;28;20025;-65
2023/10/22 11:36:19;;;;;;;6.03;1.70;;;;;;;;;;5034041;28;20148;-65
2023/10/22 11:38:44;;;;;;;3.72;1.48;;;;;;;;;;5027095;28;20082;-67
2023/10/22 11:41:09;;;;;;;7.55;1.70;;;;;;;;;;5028963;28;20029;-65
2023/10/22 11:43:40;;;;;;;7.07;1.17;;;;;;;;;;5041696;28;20017;-66
2023/10/22 11:46:06;;;;;;;5.30;1.50;;;;;;;;;;5010983;28;20009;-70
2023/10/22 11:48:32;;;;;;;8.88;1.30;;;;;;;;;;5020710;28;20033;-66
2023/10/22 11:50:58;;;;;;;4.43;1.30;;;;;;;;;;5020353;28;20021;-66
2023/10/22 11:53:27;;;;;;;2.65;1.02;;;;;;;;;;5029042;28;20472;-66
2023/10/22 11:55:52;;;;;;;6.45;1.10;;;;;;;;;;5027145;28;20029;-65
2023/10/22 11:58:18;;;;;;;7.22;1.23;;;;;;;;;;5038741;28;20100;-65
2023/10/22 12:00:44;;;;;;;4.28;1.15;;;;;;;;;;5035949;28;20013;-64
2023/10/22 12:03:10;;;;;;;5.78;1.13;;;;;;;;;;5023363;28;20075;-66
2023/10/22 12:05:35;;;;;;;5.15;0.90;;;;;;;;;;5024016;28;20482;-66
2023/10/22 12:08:01;;;;;;;5.20;1.20;;;;;;;;;;5026934;28;20048;-62
2023/10/22 12:10:26;;;;;;;8.65;1.55;;;;;;;;;;5008932;28;20021;-65
2023/10/22 12:12:51;;;;;;;5.13;0.95;;;;;;;;;;5027842;28;20117;-64
2023/10/22 12:15:16;;;;;;;5.10;1.20;;;;;;;;;;5026957;28;20049;-65
2023/10/22 12:17:42;;;;;;;3.55;0.95;;;;;;;;;;5027201;28;20144;-67
2023/10/22 12:20:08;;;;;;;2.70;1.02;;;;;;;;;;5029512;28;20029;-66
2023/10/22 12:22:33;;;;;;;5.50;1.15;;;;;;;;;;5031538;28;20024;-64
2023/10/22 12:24:59;;;;;;;3.75;0.80;;;;;;;;;;5030628;28;20017;-66
2023/10/22 12:27:25;;;;;;;3.13;0.90;;;;;;;;;;5032661;28;20138;-65
2023/10/22 12:29:51;;;;;;;5.22;1.20;;;;;;;;;;5028975;28;20032;-64
2023/10/22 12:32:16;;;;;;;4.22;1.05;;;;;;;;;;5030546;28;20021;-64
2023/10/22 12:34:41;;;;;;;6.03;1.13;;;;;;;;;;5034511;28;20486;-66
2023/10/22 12:37:07;;;;;;;6.80;0.85;;;;;;;;;;5025925;28;20136;-68
2023/10/22 12:39:32;;;;;;;5.70;1.08;;;;;;;;;;5032637;28;20021;-67
2023/10/22 12:41:57;;;;;;;4.75;0.85;;;;;;;;;;5027404;28;20017;-68
2023/10/22 12:44:24;;;;;;;6.10;1.20;;;;;;;;;;5034390;28;20013;-65
2023/10/22 12:46:49;;;;;;;4.25;1.20;;;;;;;;;;5028448;28;20028;-63
2023/10/22 12:49:14;;;;;;;5.32;1.00;;;;;;;;;;5026528;28;20017;-67
2023/10/22 12:51:40;;;;;;;8.13;1.00;;;;;;;;;;5027549;28;20013;-64
2023/10/22 12:54:05;;;;;;;4.67;1.20;;;;;;;;;;5026193;28;20063;-67
2023/10/22 12:56:31;;;;;;;5.32;0.85;;;;;;;;;;5026837;28;20261;-66
2023/10/22 12:58:57;;;;;;;8.05;1.35;;;;;;;;;;5025852;28;20032;-67
2023/10/22 13:01:22;;;;;;;6.43;0.98;;;;;;;;;;5036490;28;20024;-68
2023/10/22 13:03:48;;;;;;;6.97;1.30;;;;;;;;;;5034094;28;20021;-65
2023/10/22 13:06:13;;;;;;;5.05;1.25;;;;;;;;;;5006909;28;20017;-64
2023/10/22 13:08:38;;;;;;;3.85;0.93;;;;;;;;;;5029978;28;20041;-68
2023/10/22 13:11:03;;;;;;;6.05;1.30;;;;;;;;;;5000262;28;20423;-64
2023/10/22 13:13:29;;;;;;;4.45;0.90;;;;;;;;;;5020419;28;20064;-63
2023/10/22 13:15:54;;;;;;;5.30;1.13;;;;;;;;;;5020297;28;20276;-64
2023/10/22 13:18:20;;;;;;;5.78;1.05;;;;;;;;;;5020573;28;20087;-66
2023/10/22 13:20:45;;;;;;;2.97;1.00;;;;;;;;;;5016699;28;20028;-65
2023/10/22 13:23:11;;;;;;;5.10;0.98;;;;;;;;;;5020308;28;20037;-65
2023/10/22 13:25:36;;;;;;;6.32;1.35;;;;;;;;;;5019259;28;20100;-65
2023/10/22 13:28:01;;;;;;;6.55;1.20;;;;;;;;;;5018997;28;20090;-66
2023/10/22 13:30:27;;;;;;;4.47;0.93;;;;;;;;;;5017649;28;20063;-65
2023/10/22 13:32:54;;;;;;;11.23;1.27;;;;;;;;;;5019508;28;20037;-66
2023/10/22 13:35:19;;;;;;;7.43;1.10;;;;;;;;;;5019023;28;20013;-66
2023/10/22 13:37:45;;;;;;;7.95;1.00;;;;;;;;;;5022969;28;20098;-67
2023/10/22 13:40:10;;;;;;;2.50;0.80;;;;;;;;;;5014881;28;20095;-68
2023/10/22 13:42:36;;;;;;;4.25;0.82;;;;;;;;;;5017815;28;20021;-65
2023/10/22 13:45:01;;;;;;;6.47;1.10;;;;;;;;;;5021844;28;20052;-68
2023/10/22 13:47:26;;;;;;;3.17;1.00;;;;;;;;;;5019965;28;20017;-64
2023/10/22 13:49:52;;;;;;;1.80;0.80;;;;;;;;;;5028412;28;20647;-68
2023/10/22 13:52:17;;;;;;;1.85;0.70;;;;;;;;;;5044570;28;20036;-68
2023/10/22 13:54:43;;;;;;;2.95;0.90;;;;;;;;;;5042807;28;20056;-68
2023/10/22 13:57:08;;;;;;;4.68;1.10;;;;;;;;;;5021999;28;20047;-69
2023/10/22 13:59:34;;;;;;;4.47;0.82;;;;;;;;;;5038709;28;20013;-69
2023/10/22 14:01:59;;;;;;;7.70;1.42;;;;;;;;;;5033317;28;20044;-66
2023/10/22 14:04:24;;;;;;;3.33;0.88;;;;;;;;;;5028539;28;20021;-66
2023/10/22 14:06:50;;;;;;;4.80;1.00;;;;;;;;;;5023086;28;20053;-70
2023/10/22 14:09:19;;;;;;;5.93;1.00;;;;;;;;;;5041279;28;20092;-66
2023/10/22 14:12:01;;;;;;;5.20;1.13;;;;;;;;;;5041464;28;20025;-69
2023/10/22 14:14:27;;;;;;;9.52;1.13;;;;;;;;;;5030935;28;20105;-69
2023/10/22 14:16:52;;;;;;;7.70;1.23;;;;;;;;;;5038839;28;20084;-71
2023/10/22 14:19:18;;;;;;;2.70;1.00;;;;;;;;;;5023316;28;20381;-65
2023/10/22 14:21:44;;;;;;;5.00;1.55;;;;;;;;;;5000741;28;20623;-68
2023/10/22 14:24:09;;;;;;;8.25;1.83;;;;;;;;;;5021402;28;20028;-66
2023/10/22 14:26:35;;;;;;;7.72;1.70;;;;;;;;;;5039248;28;20372;-67
2023/10/22 14:29:00;;;;;;;7.65;1.48;;;;;;;;;;5040562;28;20372;-66
2023/10/22 14:31:26;;;;;;;7.05;1.35;;;;;;;;;;5038946;28;20021;-66
2023/10/22 14:33:51;;;;;;;8.25;1.20;;;;;;;;;;5022207;28;20052;-67